METAR Data
IDs: Format: Raw Decoded Include TAF

Data at: 0115 UTC 20 Jul 2019

METAR for:KALO (Waterloo Rgnl, IA, US)
Text:KALO 200054Z 19012KT 10SM CLR 33/26 A2968 RMK AO2 SLP042 T03280256
Temperature: 32.8°C ( 91°F)
Dewpoint: 25.6°C ( 78°F) [RH = 66%]
Pressure (altimeter):29.68 inches Hg (1005.2 mb) [Sea level pressure: 1004.2 mb]
Winds:from the S (190 degrees) at 14 MPH (12 knots; 6.2 m/s)
Visibility:10 or more sm (16+ km)
Ceiling:at least 12,000 feet AGL
Clouds:sky clear below 12,000 feet AGL